GB-0448 weather

Slieve Croob Airfield
Northern Ireland, United Kingdom

Public forecast

Using degrees Celsius for public forecast. Weather courtesy of forecast.io.

Closest aviation weather report (METAR) to Slieve Croob Airfield

Closest report is George Best Belfast City Airport, 17.5 nm (32.4 km) N. Retrieved 2020/07/02 18:20 UTC (16 minutes ago):

EGAC 021820Z AUTO 05005KT 9999 BKN037/// 13/10 Q1013

Closest aviation forecast (TAF) to Slieve Croob Airfield

Closest forecast is Belfast International Airport, 21.8 nm (40.4 km) NNW. Retrieved 2020/07/02 18:00 UTC (36 minutes ago):

TAF EGAA 021702Z 0218/0318 26007KT 9999 SCT030 BECMG 0222/0302 20012KT PROB30 TEMPO 0223/0302 7000 RA BECMG 0302/0305 BKN007 TEMPO 0302/0318 6000 RA -RADZ TEMPO 0304/0310 21015G25KT PROB30 TEMPO 0310/0318 4000 +RA RADZ BKN004